Guatimozin, Argentina
Current Conditions -  °F | °C
As of 6:00 AM on Friday 28 Nov 2014 (Local Time) from SAAR Reporting Station
Clear Clear  
Wind Chill: 17°   Ceiling: Unl
Heat Index: 17°   Visibility: 6mi
Dew Point: 12°   Wind: 6mph
Humidity: 72%   Direction: 20°NNE
Pressure: 29.94"   Gusts: NA
Location:  33.45°S, 62.45°W
Report Text: SAAR 280900Z 02005KT CAVOK 17/12 Q1014
Loading
Personal Weather Stations






























Interactive Weather Map New forecast layout! Learn more

10-Day Weather Forecast

Advertisements
Track Severe Weather on mobile